sensor_id;sensor_type;location;lat;lon;timestamp;pressure;altitude;pressure_sealevel;temperature
64947;BMP280;51469;52.150;4.682;2024-02-14T00:02:20;101360.03;;;14.64
64947;BMP280;51469;52.150;4.682;2024-02-14T00:04:46;101364.75;;;14.53
64947;BMP280;51469;52.150;4.682;2024-02-14T00:07:11;101358.47;;;14.70
64947;BMP280;51469;52.150;4.682;2024-02-14T00:09:36;101342.28;;;14.58
64947;BMP280;51469;52.150;4.682;2024-02-14T00:12:02;101347.03;;;14.64
64947;BMP280;51469;52.150;4.682;2024-02-14T00:14:27;101338.75;;;14.82
64947;BMP280;51469;52.150;4.682;2024-02-14T00:16:53;101340.72;;;14.74
64947;BMP280;51469;52.150;4.682;2024-02-14T00:19:18;101335.22;;;14.92
64947;BMP280;51469;52.150;4.682;2024-02-14T00:21:44;101323.78;;;14.90
64947;BMP280;51469;52.150;4.682;2024-02-14T00:24:09;101330.84;;;14.70
64947;BMP280;51469;52.150;4.682;2024-02-14T00:26:34;101324.19;;;14.99
64947;BMP280;51469;52.150;4.682;2024-02-14T00:29:01;101332.44;;;14.71
64947;BMP280;51469;52.150;4.682;2024-02-14T00:31:26;101336.72;;;14.47
64947;BMP280;51469;52.150;4.682;2024-02-14T00:33:51;101333.25;;;14.89
64947;BMP280;51469;52.150;4.682;2024-02-14T00:36:17;101326.91;;;14.64
64947;BMP280;51469;52.150;4.682;2024-02-14T00:38:43;101327.75;;;14.96
64947;BMP280;51469;52.150;4.682;2024-02-14T00:41:10;101336.03;;;14.89
64947;BMP280;51469;52.150;4.682;2024-02-14T00:43:36;101325.34;;;14.77
64947;BMP280;51469;52.150;4.682;2024-02-14T00:46:01;101332.47;;;14.85
64947;BMP280;51469;52.150;4.682;2024-02-14T00:48:26;101320.63;;;15.09
64947;BMP280;51469;52.150;4.682;2024-02-14T00:50:52;101328.53;;;15.18
64947;BMP280;51469;52.150;4.682;2024-02-14T00:53:17;101327.69;;;14.75
64947;BMP280;51469;52.150;4.682;2024-02-14T00:55:42;101337.22;;;14.85
64947;BMP280;51469;52.150;4.682;2024-02-14T00:58:08;101330.88;;;15.08
64947;BMP280;51469;52.150;4.682;2024-02-14T01:03:08;101334.38;;;15.65
64947;BMP280;51469;52.150;4.682;2024-02-14T01:05:37;101333.28;;;15.24
64947;BMP280;51469;52.150;4.682;2024-02-14T01:08:03;101341.97;;;15.19
64947;BMP280;51469;52.150;4.682;2024-02-14T01:10:28;101336.00;;;15.45
64947;BMP280;51469;52.150;4.682;2024-02-14T01:12:54;101345.88;;;15.32
64947;BMP280;51469;52.150;4.682;2024-02-14T01:15:20;101346.25;;;15.62
64947;BMP280;51469;52.150;4.682;2024-02-14T01:17:47;101337.94;;;15.62
64947;BMP280;51469;52.150;4.682;2024-02-14T01:20:12;101327.69;;;15.38
64947;BMP280;51469;52.150;4.682;2024-02-14T01:22:38;101331.19;;;15.70
64947;BMP280;51469;52.150;4.682;2024-02-14T01:25:03;101337.94;;;15.62
64947;BMP280;51469;52.150;4.682;2024-02-14T01:27:29;101349.00;;;15.55
64947;BMP280;51469;52.150;4.682;2024-02-14T01:29:55;101341.50;;;15.52
64947;BMP280;51469;52.150;4.682;2024-02-14T01:32:22;101353.69;;;15.72
64947;BMP280;51469;52.150;4.682;2024-02-14T01:34:47;101352.94;;;15.54
64947;BMP280;51469;52.150;4.682;2024-02-14T01:37:14;101349.31;;;15.85
64947;BMP280;51469;52.150;4.682;2024-02-14T01:39:39;101346.31;;;15.03
64947;BMP280;51469;52.150;4.682;2024-02-14T01:42:04;101356.13;;;15.32
64947;BMP280;51469;52.150;4.682;2024-02-14T01:44:32;101360.03;;;15.76
64947;BMP280;51469;52.150;4.682;2024-02-14T01:46:57;101350.56;;;15.63
64947;BMP280;51469;52.150;4.682;2024-02-14T01:49:23;101356.09;;;15.67
64947;BMP280;51469;52.150;4.682;2024-02-14T01:51:49;101354.41;;;15.97
64947;BMP280;51469;52.150;4.682;2024-02-14T01:54:15;101352.41;;;16.01
64947;BMP280;51469;52.150;4.682;2024-02-14T01:56:42;101354.41;;;15.97
64947;BMP280;51469;52.150;4.682;2024-02-14T01:59:09;101360.75;;;15.94
64947;BMP280;51469;52.150;4.682;2024-02-14T02:01:35;101358.31;;;16.07
64947;BMP280;51469;52.150;4.682;2024-02-14T02:04:01;101365.88;;;15.92
64947;BMP280;51469;52.150;4.682;2024-02-14T02:06:26;101362.25;;;16.16
64947;BMP280;51469;52.150;4.682;2024-02-14T02:08:52;101363.97;;;15.75
64947;BMP280;51469;52.150;4.682;2024-02-14T02:11:18;101364.72;;;15.93
64947;BMP280;51469;52.150;4.682;2024-02-14T02:13:44;101360.72;;;16.08
64947;BMP280;51469;52.150;4.682;2024-02-14T02:16:09;101367.13;;;15.77
64947;BMP280;51469;52.150;4.682;2024-02-14T02:18:35;101367.94;;;15.67
64947;BMP280;51469;52.150;4.682;2024-02-14T02:21:00;101369.88;;;15.77
64947;BMP280;51469;52.150;4.682;2024-02-14T02:23:29;101353.66;;;15.79
64947;BMP280;51469;52.150;4.682;2024-02-14T02:25:55;101366.72;;;15.82
64947;BMP280;51469;52.150;4.682;2024-02-14T02:28:20;101371.88;;;15.80
64947;BMP280;51469;52.150;4.682;2024-02-14T02:30:45;101372.69;;;15.74
64947;BMP280;51469;52.150;4.682;2024-02-14T02:33:11;101371.50;;;15.71
64947;BMP280;51469;52.150;4.682;2024-02-14T02:35:37;101374.63;;;15.80
64947;BMP280;51469;52.150;4.682;2024-02-14T02:38:02;101371.06;;;15.83
64947;BMP280;51469;52.150;4.682;2024-02-14T02:40:28;101377.84;;;15.68
64947;BMP280;51469;52.150;4.682;2024-02-14T02:42:54;101388.41;;;16.01
64947;BMP280;51469;52.150;4.682;2024-02-14T02:45:19;101376.63;;;15.83
64947;BMP280;51469;52.150;4.682;2024-02-14T02:47:45;101382.13;;;15.87
64947;BMP280;51469;52.150;4.682;2024-02-14T02:50:10;101377.22;;;16.22
64947;BMP280;51469;52.150;4.682;2024-02-14T02:52:35;101380.38;;;16.28
64947;BMP280;51469;52.150;4.682;2024-02-14T02:55:01;101369.66;;;16.33
64947;BMP280;51469;52.150;4.682;2024-02-14T02:57:28;101382.75;;;16.36
64947;BMP280;51469;52.150;4.682;2024-02-14T02:59:53;101379.63;;;16.20
64947;BMP280;51469;52.150;4.682;2024-02-14T03:02:19;101376.03;;;16.30
64947;BMP280;51469;52.150;4.682;2024-02-14T03:04:45;101374.75;;;16.45
64947;BMP280;51469;52.150;4.682;2024-02-14T03:07:11;101382.81;;;16.15
64947;BMP280;51469;52.150;4.682;2024-02-14T03:09:36;101376.34;;;16.43
64947;BMP280;51469;52.150;4.682;2024-02-14T03:12:02;101377.13;;;16.43
64947;BMP280;51469;52.150;4.682;2024-02-14T03:14:31;101387.00;;;16.51
64947;BMP280;51469;52.150;4.682;2024-02-14T03:17:00;101390.44;;;16.69
64947;BMP280;51469;52.150;4.682;2024-02-14T03:19:26;101383.75;;;16.67
64947;BMP280;51469;52.150;4.682;2024-02-14T03:21:53;101382.59;;;16.57
64947;BMP280;51469;52.150;4.682;2024-02-14T03:24:19;101387.03;;;16.44
64947;BMP280;51469;52.150;4.682;2024-02-14T03:26:44;101386.56;;;16.56
64947;BMP280;51469;52.150;4.682;2024-02-14T03:29:09;101392.91;;;16.57
64947;BMP280;51469;52.150;4.682;2024-02-14T03:31:35;101386.19;;;16.54
64947;BMP280;51469;52.150;4.682;2024-02-14T03:34:01;101386.50;;;16.63
64947;BMP280;51469;52.150;4.682;2024-02-14T03:36:26;101395.16;;;16.76
64947;BMP280;51469;52.150;4.682;2024-02-14T03:38:59;101386.44;;;16.81
64947;BMP280;51469;52.150;4.682;2024-02-14T03:41:29;101394.19;;;17.00
64947;BMP280;51469;52.150;4.682;2024-02-14T03:43:54;101394.63;;;16.30
64947;BMP280;51469;52.150;4.682;2024-02-14T03:46:23;101397.75;;;16.35
64947;BMP280;51469;52.150;4.682;2024-02-14T03:48:49;101393.66;;;16.64
64947;BMP280;51469;52.150;4.682;2024-02-14T03:51:14;101403.41;;;16.86
64947;BMP280;51469;52.150;4.682;2024-02-14T03:53:40;101393.50;;;16.85
64947;BMP280;51469;52.150;4.682;2024-02-14T03:56:06;101393.16;;;16.76
64947;BMP280;51469;52.150;4.682;2024-02-14T03:58:34;101411.00;;;16.75
64947;BMP280;51469;52.150;4.682;2024-02-14T04:01:03;101402.34;;;16.66
64947;BMP280;51469;52.150;4.682;2024-02-14T04:03:28;101409.72;;;16.83
64947;BMP280;51469;52.150;4.682;2024-02-14T04:05:57;101412.38;;;17.01
64947;BMP280;51469;52.150;4.682;2024-02-14T04:08:22;101413.31;;;16.84
64947;BMP280;51469;52.150;4.682;2024-02-14T04:10:47;101425.94;;;16.92
64947;BMP280;51469;52.150;4.682;2024-02-14T04:13:15;101425.94;;;16.88
64947;BMP280;51469;52.150;4.682;2024-02-14T04:15:41;101425.16;;;16.84
64947;BMP280;51469;52.150;4.682;2024-02-14T04:18:08;101417.25;;;16.83
64947;BMP280;51469;52.150;4.682;2024-02-14T04:20:33;101430.34;;;16.86
64947;BMP280;51469;52.150;4.682;2024-02-14T04:22:58;101426.66;;;16.99
64947;BMP280;51469;52.150;4.682;2024-02-14T04:25:24;101436.94;;;17.02
64947;BMP280;51469;52.150;4.682;2024-02-14T04:27:49;101430.19;;;17.07
64947;BMP280;51469;52.150;4.682;2024-02-14T04:30:14;101444.09;;;16.96
64947;BMP280;51469;52.150;4.682;2024-02-14T04:32:40;101449.59;;;17.03
64947;BMP280;51469;52.150;4.682;2024-02-14T04:35:05;101430.00;;;16.73
64947;BMP280;51469;52.150;4.682;2024-02-14T04:37:31;101445.06;;;16.69
64947;BMP280;51469;52.150;4.682;2024-02-14T04:39:58;101440.31;;;16.69
64947;BMP280;51469;52.150;4.682;2024-02-14T04:42:24;101440.94;;;16.94
64947;BMP280;51469;52.150;4.682;2024-02-14T04:44:49;101446.06;;;16.99
64947;BMP280;51469;52.150;4.682;2024-02-14T04:47:14;101439.78;;;16.95
64947;BMP280;51469;52.150;4.682;2024-02-14T04:49:40;101448.72;;;17.13
64947;BMP280;51469;52.150;4.682;2024-02-14T04:52:05;101440.06;;;17.04
64947;BMP280;51469;52.150;4.682;2024-02-14T04:54:32;101445.75;;;16.83
64947;BMP280;51469;52.150;4.682;2024-02-14T04:56:58;101449.16;;;17.08
64947;BMP280;51469;52.150;4.682;2024-02-14T04:59:23;101448.53;;;16.83
64947;BMP280;51469;52.150;4.682;2024-02-14T05:01:48;101460.34;;;16.94
64947;BMP280;51469;52.150;4.682;2024-02-14T05:04:15;101468.88;;;16.59
64947;BMP280;51469;52.150;4.682;2024-02-14T05:06:41;101471.09;;;16.89
64947;BMP280;51469;52.150;4.682;2024-02-14T05:09:07;101462.84;;;16.67
64947;BMP280;51469;52.150;4.682;2024-02-14T05:11:35;101463.94;;;16.88
64947;BMP280;51469;52.150;4.682;2024-02-14T05:14:01;101460.75;;;16.96
64947;BMP280;51469;52.150;4.682;2024-02-14T05:16:27;101466.22;;;17.03
64947;BMP280;51469;52.150;4.682;2024-02-14T05:18:52;101461.38;;;17.21
64947;BMP280;51469;52.150;4.682;2024-02-14T05:21:20;101451.91;;;17.15
64947;BMP280;51469;52.150;4.682;2024-02-14T05:23:45;101464.47;;;17.27
64947;BMP280;51469;52.150;4.682;2024-02-14T05:26:10;101466.13;;;17.17
64947;BMP280;51469;52.150;4.682;2024-02-14T05:28:36;101466.09;;;17.24
64947;BMP280;51469;52.150;4.682;2024-02-14T05:31:01;101458.78;;;17.44
64947;BMP280;51469;52.150;4.682;2024-02-14T05:33:28;101476.72;;;17.36
64947;BMP280;51469;52.150;4.682;2024-02-14T05:35:54;101473.31;;;17.11
64947;BMP280;51469;52.150;4.682;2024-02-14T05:38:19;101476.28;;;17.38
64947;BMP280;51469;52.150;4.682;2024-02-14T05:40:45;101469.13;;;17.40
64947;BMP280;51469;52.150;4.682;2024-02-14T05:43:11;101473.97;;;17.29
64947;BMP280;51469;52.150;4.682;2024-02-14T05:45:36;101471.38;;;17.52
64947;BMP280;51469;52.150;4.682;2024-02-14T05:48:02;101473.81;;;17.46
64947;BMP280;51469;52.150;4.682;2024-02-14T05:50:28;101480.81;;;17.14
64947;BMP280;51469;52.150;4.682;2024-02-14T05:52:54;101486.63;;;17.30
64947;BMP280;51469;52.150;4.682;2024-02-14T05:55:19;101488.91;;;17.42
64947;BMP280;51469;52.150;4.682;2024-02-14T05:57:44;101497.00;;;17.26
64947;BMP280;51469;52.150;4.682;2024-02-14T06:00:10;101490.84;;;16.94
64947;BMP280;51469;52.150;4.682;2024-02-14T06:02:37;101485.75;;;17.40
64947;BMP280;51469;52.150;4.682;2024-02-14T06:05:05;101491.78;;;17.32
64947;BMP280;51469;52.150;4.682;2024-02-14T06:07:34;101497.22;;;17.46
64947;BMP280;51469;52.150;4.682;2024-02-14T06:09:59;101494.47;;;17.42
64947;BMP280;51469;52.150;4.682;2024-02-14T06:12:24;101496.56;;;17.31
64947;BMP280;51469;52.150;4.682;2024-02-14T06:14:50;101496.22;;;17.18
64947;BMP280;51469;52.150;4.682;2024-02-14T06:17:15;101499.38;;;17.17
64947;BMP280;51469;52.150;4.682;2024-02-14T06:19:41;101501.16;;;17.48
64947;BMP280;51469;52.150;4.682;2024-02-14T06:22:07;101501.97;;;17.45
64947;BMP280;51469;52.150;4.682;2024-02-14T06:24:32;101505.56;;;17.42
64947;BMP280;51469;52.150;4.682;2024-02-14T06:26:57;101506.78;;;17.41
64947;BMP280;51469;52.150;4.682;2024-02-14T06:29:23;101507.81;;;17.58
64947;BMP280;51469;52.150;4.682;2024-02-14T06:31:48;101512.97;;;17.55
64947;BMP280;51469;52.150;4.682;2024-02-14T06:34:14;101504.31;;;17.50
64947;BMP280;51469;52.150;4.682;2024-02-14T06:36:39;101510.09;;;17.69
64947;BMP280;51469;52.150;4.682;2024-02-14T06:39:06;101514.91;;;17.62
64947;BMP280;51469;52.150;4.682;2024-02-14T06:41:32;101522.75;;;17.70
64947;BMP280;51469;52.150;4.682;2024-02-14T06:43:57;101527.75;;;17.42
64947;BMP280;51469;52.150;4.682;2024-02-14T06:46:23;101527.03;;;17.35
64947;BMP280;51469;52.150;4.682;2024-02-14T06:48:48;101523.72;;;17.50
64947;BMP280;51469;52.150;4.682;2024-02-14T06:51:16;101529.03;;;17.78
64947;BMP280;51469;52.150;4.682;2024-02-14T06:53:42;101517.13;;;17.81
64947;BMP280;51469;52.150;4.682;2024-02-14T06:56:07;101525.75;;;17.90
64947;BMP280;51469;52.150;4.682;2024-02-14T06:58:32;101525.38;;;17.88
64947;BMP280;51469;52.150;4.682;2024-02-14T07:00:58;101534.41;;;17.99
64947;BMP280;51469;52.150;4.682;2024-02-14T07:03:23;101531.44;;;17.76
64947;BMP280;51469;52.150;4.682;2024-02-14T07:05:48;101536.28;;;17.68
64947;BMP280;51469;52.150;4.682;2024-02-14T07:08:14;101542.66;;;17.62
64947;BMP280;51469;52.150;4.682;2024-02-14T07:10:40;101539.78;;;17.76
64947;BMP280;51469;52.150;4.682;2024-02-14T07:13:05;101543.44;;;17.66
64947;BMP280;51469;52.150;4.682;2024-02-14T07:15:30;101542.63;;;17.69
64947;BMP280;51469;52.150;4.682;2024-02-14T07:17:56;101547.78;;;17.67
64947;BMP280;51469;52.150;4.682;2024-02-14T07:20:23;101543.47;;;17.63
64947;BMP280;51469;52.150;4.682;2024-02-14T07:22:51;101541.88;;;17.58
64947;BMP280;51469;52.150;4.682;2024-02-14T07:25:21;101550.03;;;17.32
64947;BMP280;51469;52.150;4.682;2024-02-14T07:27:46;101550.16;;;17.68
64947;BMP280;51469;52.150;4.682;2024-02-14T07:30:17;101549.28;;;17.75
64947;BMP280;51469;52.150;4.682;2024-02-14T07:32:43;101546.06;;;17.33
64947;BMP280;51469;52.150;4.682;2024-02-14T07:35:09;101549.47;;;17.54
64947;BMP280;51469;52.150;4.682;2024-02-14T07:37:34;101551.53;;;17.43
64947;BMP280;51469;52.150;4.682;2024-02-14T07:39:59;101561.03;;;17.46
64947;BMP280;51469;52.150;4.682;2024-02-14T07:42:25;101552.13;;;17.68
64947;BMP280;51469;52.150;4.682;2024-02-14T07:44:50;101570.13;;;17.46
64947;BMP280;51469;52.150;4.682;2024-02-14T07:47:15;101566.63;;;17.38
64947;BMP280;51469;52.150;4.682;2024-02-14T07:49:41;101569.63;;;17.58
64947;BMP280;51469;52.150;4.682;2024-02-14T07:52:06;101558.03;;;17.73
64947;BMP280;51469;52.150;4.682;2024-02-14T07:54:31;101562.34;;;17.78
64947;BMP280;51469;52.150;4.682;2024-02-14T07:56:57;101565.94;;;17.75
64947;BMP280;51469;52.150;4.682;2024-02-14T07:59:22;101566.50;;;17.60
64947;BMP280;51469;52.150;4.682;2024-02-14T08:01:48;101565.72;;;17.52
64947;BMP280;51469;52.150;4.682;2024-02-14T08:04:13;101581.72;;;17.27
64947;BMP280;51469;52.150;4.682;2024-02-14T08:06:38;101590.91;;;17.17
64947;BMP280;51469;52.150;4.682;2024-02-14T08:09:04;101580.75;;;17.58
64947;BMP280;51469;52.150;4.682;2024-02-14T08:11:32;101579.16;;;17.57
64947;BMP280;51469;52.150;4.682;2024-02-14T08:13:57;101582.97;;;17.77
64947;BMP280;51469;52.150;4.682;2024-02-14T08:16:23;101574.44;;;17.54
64947;BMP280;51469;52.150;4.682;2024-02-14T08:18:49;101574.69;;;17.70
64947;BMP280;51469;52.150;4.682;2024-02-14T08:21:16;101568.69;;;17.75
64947;BMP280;51469;52.150;4.682;2024-02-14T08:23:41;101573.34;;;17.92
64947;BMP280;51469;52.150;4.682;2024-02-14T08:26:07;101584.19;;;17.76
64947;BMP280;51469;52.150;4.682;2024-02-14T08:28:38;101577.72;;;17.86
64947;BMP280;51469;52.150;4.682;2024-02-14T08:31:11;101589.22;;;17.88
64947;BMP280;51469;52.150;4.682;2024-02-14T08:33:39;101592.25;;;17.60
64947;BMP280;51469;52.150;4.682;2024-02-14T08:36:05;101586.97;;;17.76
64947;BMP280;51469;52.150;4.682;2024-02-14T08:38:35;101588.53;;;17.77
64947;BMP280;51469;52.150;4.682;2024-02-14T08:41:04;101597.13;;;17.93
64947;BMP280;51469;52.150;4.682;2024-02-14T08:43:30;101602.91;;;17.65
64947;BMP280;51469;52.150;4.682;2024-02-14T08:45:56;101603.06;;;17.44
64947;BMP280;51469;52.150;4.682;2024-02-14T08:48:22;101604.50;;;17.63
64947;BMP280;51469;52.150;4.682;2024-02-14T08:50:48;101607.63;;;17.68
64947;BMP280;51469;52.150;4.682;2024-02-14T08:53:13;101598.81;;;17.80
64947;BMP280;51469;52.150;4.682;2024-02-14T08:55:42;101609.31;;;17.55
64947;BMP280;51469;52.150;4.682;2024-02-14T08:58:08;101602.38;;;17.80
64947;BMP280;51469;52.150;4.682;2024-02-14T09:00:37;101612.38;;;17.71
64947;BMP280;51469;52.150;4.682;2024-02-14T09:03:05;101610.69;;;17.84
64947;BMP280;51469;52.150;4.682;2024-02-14T09:05:30;101611.59;;;17.67
64947;BMP280;51469;52.150;4.682;2024-02-14T09:07:59;101618.69;;;17.71
64947;BMP280;51469;52.150;4.682;2024-02-14T09:10:25;101610.75;;;17.77
64947;BMP280;51469;52.150;4.682;2024-02-14T09:12:50;101612.38;;;17.71
64947;BMP280;51469;52.150;4.682;2024-02-14T09:15:16;101614.91;;;17.48
64947;BMP280;51469;52.150;4.682;2024-02-14T09:17:41;101617.94;;;17.71
64947;BMP280;51469;52.150;4.682;2024-02-14T09:20:09;101625.19;;;17.51
64947;BMP280;51469;52.150;4.682;2024-02-14T09:22:35;101620.13;;;17.32
64947;BMP280;51469;52.150;4.682;2024-02-14T09:25:01;101624.09;;;17.38
64947;BMP280;51469;52.150;4.682;2024-02-14T09:27:30;101620.41;;;17.51
64947;BMP280;51469;52.150;4.682;2024-02-14T09:29:55;101608.47;;;17.61
64947;BMP280;51469;52.150;4.682;2024-02-14T09:32:20;101611.56;;;17.74
64947;BMP280;51469;52.150;4.682;2024-02-14T09:34:45;101619.56;;;17.65
64947;BMP280;51469;52.150;4.682;2024-02-14T09:37:11;101625.06;;;17.72
64947;BMP280;51469;52.150;4.682;2024-02-14T09:39:36;101615.47;;;17.80
64947;BMP280;51469;52.150;4.682;2024-02-14T09:42:08;101628.69;;;17.62
64947;BMP280;51469;52.150;4.682;2024-02-14T09:44:34;101634.47;;;17.85
64947;BMP280;51469;52.150;4.682;2024-02-14T09:47:00;101633.00;;;17.66
64947;BMP280;51469;52.150;4.682;2024-02-14T09:49:28;101633.09;;;17.56
64947;BMP280;51469;52.150;4.682;2024-02-14T09:51:55;101627.69;;;17.86
64947;BMP280;51469;52.150;4.682;2024-02-14T09:54:22;101621.06;;;17.73
64947;BMP280;51469;52.150;4.682;2024-02-14T09:56:51;101626.88;;;17.38
64947;BMP280;51469;52.150;4.682;2024-02-14T09:59:19;101631.47;;;17.62
64947;BMP280;51469;52.150;4.682;2024-02-14T10:01:45;101625.06;;;17.72
64947;BMP280;51469;52.150;4.682;2024-02-14T10:04:11;101633.66;;;17.84
64947;BMP280;51469;52.150;4.682;2024-02-14T10:06:36;101622.81;;;17.53
64947;BMP280;51469;52.150;4.682;2024-02-14T10:09:02;101621.09;;;17.69
64947;BMP280;51469;52.150;4.682;2024-02-14T10:11:27;101620.34;;;17.65
64947;BMP280;51469;52.150;4.682;2024-02-14T10:13:53;101634.44;;;17.88
64947;BMP280;51469;52.150;4.682;2024-02-14T10:16:22;101638.31;;;17.98
64947;BMP280;51469;52.150;4.682;2024-02-14T10:18:48;101639.91;;;17.99
64947;BMP280;51469;52.150;4.682;2024-02-14T10:21:15;101639.59;;;18.34
64947;BMP280;51469;52.150;4.682;2024-02-14T10:23:45;101640.41;;;18.31
64947;BMP280;51469;52.150;4.682;2024-02-14T10:26:13;101650.69;;;18.34
64947;BMP280;51469;52.150;4.682;2024-02-14T10:28:42;101637.69;;;18.24
64947;BMP280;51469;52.150;4.682;2024-02-14T10:31:09;101647.56;;;18.32
64947;BMP280;51469;52.150;4.682;2024-02-14T10:33:35;101639.06;;;18.46
64947;BMP280;51469;52.150;4.682;2024-02-14T10:36:01;101650.84;;;18.20
64947;BMP280;51469;52.150;4.682;2024-02-14T10:38:31;101644.25;;;18.00
64947;BMP280;51469;52.150;4.682;2024-02-14T10:40:59;101652.19;;;17.98
64947;BMP280;51469;52.150;4.682;2024-02-14T10:43:25;101640.03;;;17.81
64947;BMP280;51469;52.150;4.682;2024-02-14T10:45:52;101640.19;;;18.15
64947;BMP280;51469;52.150;4.682;2024-02-14T10:48:21;101627.78;;;18.23
64947;BMP280;51469;52.150;4.682;2024-02-14T10:50:50;101636.22;;;18.09
64947;BMP280;51469;52.150;4.682;2024-02-14T10:53:18;101637.44;;;18.08
64947;BMP280;51469;52.150;4.682;2024-02-14T10:55:49;101634.66;;;18.08
64947;BMP280;51469;52.150;4.682;2024-02-14T10:58:18;101638.50;;;18.24
64947;BMP280;51469;52.150;4.682;2024-02-14T11:00:44;101636.13;;;18.23
64947;BMP280;51469;52.150;4.682;2024-02-14T11:03:10;101640.69;;;17.99
64947;BMP280;51469;52.150;4.682;2024-02-14T11:05:48;101628.09;;;17.88
64947;BMP280;51469;52.150;4.682;2024-02-14T11:08:21;101631.03;;;18.14
64947;BMP280;51469;52.150;4.682;2024-02-14T11:10:54;101617.50;;;18.20
64947;BMP280;51469;52.150;4.682;2024-02-14T11:13:21;101619.00;;;18.28
64947;BMP280;51469;52.150;4.682;2024-02-14T11:15:46;101616.75;;;18.16
64947;BMP280;51469;52.150;4.682;2024-02-14T11:18:12;101632.72;;;18.05
64947;BMP280;51469;52.150;4.682;2024-02-14T11:20:37;101622.16;;;18.33
64947;BMP280;51469;52.150;4.682;2024-02-14T11:23:07;101617.31;;;18.37
64947;BMP280;51469;52.150;4.682;2024-02-14T11:25:37;101624.41;;;18.42
64947;BMP280;51469;52.150;4.682;2024-02-14T11:28:16;101624.47;;;18.38
64947;BMP280;51469;52.150;4.682;2024-02-14T11:30:43;101616.00;;;18.49
64947;BMP280;51469;52.150;4.682;2024-02-14T11:33:20;101616.00;;;18.12
64947;BMP280;51469;52.150;4.682;2024-02-14T11:35:47;101624.66;;;18.21
64947;BMP280;51469;52.150;4.682;2024-02-14T11:38:14;101618.84;;;18.42
64947;BMP280;51469;52.150;4.682;2024-02-14T11:40:40;101613.47;;;18.28
64947;BMP280;51469;52.150;4.682;2024-02-14T11:43:19;101616.63;;;18.30
64947;BMP280;51469;52.150;4.682;2024-02-14T11:45:47;101611.09;;;18.26
64947;BMP280;51469;52.150;4.682;2024-02-14T11:48:17;101611.69;;;18.48
64947;BMP280;51469;52.150;4.682;2024-02-14T11:50:44;101599.75;;;18.47
64947;BMP280;51469;52.150;4.682;2024-02-14T11:53:11;101610.22;;;18.33
64947;BMP280;51469;52.150;4.682;2024-02-14T11:55:38;101603.03;;;18.35
64947;BMP280;51469;52.150;4.682;2024-02-14T11:58:07;101609.38;;;18.39
64947;BMP280;51469;52.150;4.682;2024-02-14T12:00:33;101596.78;;;18.28
64947;BMP280;51469;52.150;4.682;2024-02-14T12:03:01;101608.22;;;17.93
64947;BMP280;51469;52.150;4.682;2024-02-14T12:05:27;101616.09;;;17.98
64947;BMP280;51469;52.150;4.682;2024-02-14T12:07:52;101609.78;;;17.97
64947;BMP280;51469;52.150;4.682;2024-02-14T12:10:19;101603.69;;;17.69
64947;BMP280;51469;52.150;4.682;2024-02-14T12:12:47;101609.75;;;18.01
64947;BMP280;51469;52.150;4.682;2024-02-14T12:15:13;101608.94;;;18.04
64947;BMP280;51469;52.150;4.682;2024-02-14T12:17:40;101604.72;;;18.26
64947;BMP280;51469;52.150;4.682;2024-02-14T12:20:10;101608.09;;;18.10
64947;BMP280;51469;52.150;4.682;2024-02-14T12:22:38;101605.75;;;18.05
64947;BMP280;51469;52.150;4.682;2024-02-14T12:25:05;101609.91;;;18.24
64947;BMP280;51469;52.150;4.682;2024-02-14T12:27:32;101600.25;;;18.39
64947;BMP280;51469;52.150;4.682;2024-02-14T12:29:58;101606.03;;;18.55
64947;BMP280;51469;52.150;4.682;2024-02-14T12:32:23;101608.47;;;18.49
64947;BMP280;51469;52.150;4.682;2024-02-14T12:34:49;101605.94;;;18.62
64947;BMP280;51469;52.150;4.682;2024-02-14T12:37:14;101599.97;;;18.26
64947;BMP280;51469;52.150;4.682;2024-02-14T12:39:40;101598.59;;;18.45
64947;BMP280;51469;52.150;4.682;2024-02-14T12:42:05;101605.56;;;18.23
64947;BMP280;51469;52.150;4.682;2024-02-14T12:44:31;101606.97;;;18.41
64947;BMP280;51469;52.150;4.682;2024-02-14T12:46:57;101601.19;;;18.59
64947;BMP280;51469;52.150;4.682;2024-02-14T12:49:23;101595.09;;;18.37
64947;BMP280;51469;52.150;4.682;2024-02-14T12:51:51;101596.47;;;18.56
64947;BMP280;51469;52.150;4.682;2024-02-14T12:54:16;101597.91;;;18.34
64947;BMP280;51469;52.150;4.682;2024-02-14T12:56:42;101604.88;;;18.15
64947;BMP280;51469;52.150;4.682;2024-02-14T12:59:08;101599.03;;;18.40
64947;BMP280;51469;52.150;4.682;2024-02-14T13:01:37;101606.94;;;18.45
64947;BMP280;51469;52.150;4.682;2024-02-14T13:04:02;101604.50;;;18.47
64947;BMP280;51469;52.150;4.682;2024-02-14T13:06:30;101604.69;;;18.33
64947;BMP280;51469;52.150;4.682;2024-02-14T13:08:56;101589.41;;;18.11
64947;BMP280;51469;52.150;4.682;2024-02-14T13:11:21;101591.47;;;18.07
64947;BMP280;51469;52.150;4.682;2024-02-14T13:13:47;101596.22;;;18.03
64947;BMP280;51469;52.150;4.682;2024-02-14T13:16:13;101592.13;;;18.18
64947;BMP280;51469;52.150;4.682;2024-02-14T13:18:38;101589.59;;;18.30
64947;BMP280;51469;52.150;4.682;2024-02-14T13:21:05;101587.16;;;18.36
64947;BMP280;51469;52.150;4.682;2024-02-14T13:23:30;101588.19;;;18.49
64947;BMP280;51469;52.150;4.682;2024-02-14T13:25:56;101593.69;;;18.19
64947;BMP280;51469;52.150;4.682;2024-02-14T13:28:21;101588.09;;;18.22
64947;BMP280;51469;52.150;4.682;2024-02-14T13:30:47;101588.84;;;18.30
64947;BMP280;51469;52.150;4.682;2024-02-14T13:33:15;101596.38;;;18.26
64947;BMP280;51469;52.150;4.682;2024-02-14T13:35:41;101596.53;;;18.49
64947;BMP280;51469;52.150;4.682;2024-02-14T13:38:06;101592.13;;;18.18
64947;BMP280;51469;52.150;4.682;2024-02-14T13:40:33;101591.81;;;18.46
64947;BMP280;51469;52.150;4.682;2024-02-14T13:42:58;101595.13;;;18.34
64947;BMP280;51469;52.150;4.682;2024-02-14T13:45:24;101592.72;;;18.36
64947;BMP280;51469;52.150;4.682;2024-02-14T13:47:50;101597.88;;;18.37
64947;BMP280;51469;52.150;4.682;2024-02-14T13:50:16;101590.03;;;18.29
64947;BMP280;51469;52.150;4.682;2024-02-14T13:52:41;101592.28;;;18.41
64947;BMP280;51469;52.150;4.682;2024-02-14T13:55:07;101589.41;;;18.51